Fort Morgan, CO

1:22 AM MDT on April 27, 2015 (GMT -0600)
Fort Morgan | | Change Station
CLOSE
Current Station
Personal Weather Station
Location: Fort Morgan, CO
Elevation: 4334 ft
Nearby Weather Stations

Elev 4334 ft 40.26 °N, 103.80 °W | Updated 32 seconds ago

Rain
Rain
41.2 °F
Feels Like 41 °F
N
0.0
Wind Variable Wind from North
Gusts 0.0 mph

Today
High -- | Low -- °F
--% Chance of Precip.
Yesterday
High -- | Low -- °F
Precip. -- in
6:00 AM 7:46 PM
Waxing Gibbous, 62% visible
Pressure 30.13 in
Visibility 10.0 miles
Clouds Scattered Clouds 700 ft
Scattered Clouds 1200 ft
Overcast 2100 ft
Windchill 41 °F
Dew Point 40 °F
Humidity 94%
Rainfall 0.00 in
Snow Depth Not available.
UV 0 out of 12
Pollen 3.10 out of 12
Air Quality Not available.
Flu Activity Sporadic
METAR KFMM 270715Z AUTO 34003KT 10SM -RA SCT007 SCT012 OVC021 05/04 A3013 RMK AO2 T00450037

More Conditions Fewer Conditions

Pressure 30.13 in
Visibility 10.0 miles
Clouds Scattered Clouds 700 ft
Scattered Clouds 1200 ft
Overcast 2100 ft
Windchill 41 °F
Dew Point 40 °F
Humidity 94%
Rainfall 0.00 in
Snow Depth Not available.
UV 0 out of 12
Pollen 3.10 out of 12
Air Quality Not available.
Flu Activity Sporadic
METAR KFMM 270715Z AUTO 34003KT 10SM -RA SCT007 SCT012 OVC021 05/04 A3013 RMK AO2 T00450037

More Conditions Fewer Conditions

10-Day Weather Forecast

Almanac

Astronomy

Apr. 27, 2015 Rise Set
Actual Time
Civil Twilight
Nautical Twilight
Astronomical Twilight
Moon
Length of Visible Light
Length of Day
Tomorrow will be .
, % of the Moon is Illuminated

Today's Extremes

State Highs State Lows

Community

WunderPhotos

Upload Photos

1,817,276 photos uploaded!

WunderBlogs® & News

Nearby

Air Quality

  Air Quality AQ Index Pollutant
Not available.

Snow Depth

Station Depth Elevation

Earthquake Activity

City Distance Mag. Time & Date
Minimum magnitude displayed is 2.5.

Coastal Water Temperatures

Place Temperature

Stations

Nearby Weather Stations

Station Location Temp. Windchill Dew Point Humidity Wind Precip. Elev Updated Type